Time;durP1;ratioP1;P1;durP2;ratioP2;P2;SDS_P1;SDS_P2;PMS_P1;PMS_P2;Temp;Humidity;BMP_temperature;BMP_pressure;BME280_temperature;BME280_humidity;BME280_pressure;Samples;Min_cycle;Max_cycle;Signal;HPM_P1;HPM_P2
2022/01/21 00:00:50;;;;;;;23.45;3.63;;;1.50;99.90;;;;;;4875960;29;20037;-86
2022/01/21 00:03:16;;;;;;;21.10;3.25;;;1.50;99.90;;;;;;4873192;29;20453;-87
2022/01/21 00:05:41;;;;;;;18.48;4.15;;;1.50;99.90;;;;;;4857846;29;20405;-87
2022/01/21 00:08:07;;;;;;;23.13;3.70;;;1.50;99.90;;;;;;4854994;29;20472;-86
2022/01/21 00:10:32;;;;;;;22.67;3.63;;;1.50;99.90;;;;;;4860843;29;20045;-86
2022/01/21 00:12:58;;;;;;;25.95;3.47;;;1.50;99.90;;;;;;4873038;29;20050;-86
2022/01/21 00:15:24;;;;;;;26.33;3.15;;;1.60;99.90;;;;;;4856881;29;20060;-86
2022/01/21 00:17:49;;;;;;;15.35;2.90;;;1.60;99.90;;;;;;4859818;29;20073;-87
2022/01/21 00:31:31;;;;;;;20.35;3.20;;;1.90;99.90;;;;;;4803545;29;20157;-87
2022/01/21 00:33:57;;;;;;;26.52;3.17;;;1.90;99.90;;;;;;4796818;29;20117;-87
2022/01/21 00:36:22;;;;;;;17.92;2.70;;;2.00;99.90;;;;;;4804150;29;20070;-86
2022/01/21 00:38:48;;;;;;;26.52;2.97;;;2.00;99.90;;;;;;4804098;29;20089;-86
2022/01/21 00:41:19;;;;;;;19.20;3.13;;;2.00;99.90;;;;;;4804372;29;20046;-87
2022/01/21 00:43:45;;;;;;;19.95;2.90;;;2.00;99.90;;;;;;4803412;29;20058;-87
2022/01/21 00:46:12;;;;;;;18.77;3.03;;;2.00;99.90;;;;;;4799886;29;20046;-88
2022/01/21 00:48:38;;;;;;;16.80;3.42;;;2.00;99.90;;;;;;4808129;29;20061;-87
2022/01/21 00:51:04;;;;;;;29.20;3.17;;;2.00;99.90;;;;;;4803800;29;20054;-86
2022/01/21 00:53:30;;;;;;;18.42;3.10;;;2.00;99.90;;;;;;4804207;29;20149;-87
2022/01/21 00:55:55;;;;;;;20.10;2.95;;;1.90;99.90;;;;;;4800577;29;20157;-87
2022/01/21 00:58:21;;;;;;;15.15;2.75;;;1.90;99.90;;;;;;4813205;29;20418;-87
2022/01/21 01:00:46;;;;;;;18.33;2.40;;;1.90;99.90;;;;;;4803572;29;20130;-89
2022/01/21 01:03:14;;;;;;;13.38;2.08;;;1.80;99.90;;;;;;4847422;29;20105;-88
2022/01/21 01:05:40;;;;;;;20.38;2.92;;;1.80;99.90;;;;;;4872385;29;20080;-88
2022/01/21 01:08:06;;;;;;;11.55;2.42;;;1.70;99.90;;;;;;4855857;29;20073;-88
2022/01/21 01:10:46;;;;;;;22.70;2.63;;;1.80;99.90;;;;;;4874275;29;20564;-87
2022/01/21 01:21:25;;;;;;;16.70;2.40;;;1.70;99.90;;;;;;4883847;29;20302;-88
2022/01/21 01:29:20;;;;;;;10.88;2.17;;;1.70;99.90;;;;;;4873718;29;20059;-88
2022/01/21 01:31:45;;;;;;;19.55;2.65;;;1.80;99.90;;;;;;4859422;29;20048;-88
2022/01/21 01:34:11;;;;;;;14.63;2.20;;;1.80;99.90;;;;;;4858663;29;20045;-88
2022/01/21 01:36:39;;;;;;;17.67;2.10;;;1.80;99.90;;;;;;4856702;29;20041;-88
2022/01/21 01:41:41;;;;;;;8.43;1.83;;;1.90;99.90;;;;;;4868939;29;20053;-87
2022/01/21 01:49:37;;;;;;;14.65;3.10;;;1.90;99.90;;;;;;4864087;29;20049;-87
2022/01/21 01:52:14;;;;;;;15.63;2.28;;;2.00;99.90;;;;;;4840858;29;20057;-87
2022/01/21 01:54:43;;;;;;;25.63;2.53;;;2.00;99.90;;;;;;4858815;29;20081;-88
2022/01/21 01:57:10;;;;;;;11.82;2.67;;;2.00;99.90;;;;;;4859018;29;20074;-88
2022/01/21 01:59:36;;;;;;;14.30;2.30;;;2.10;99.90;;;;;;4858788;29;20075;-88
2022/01/21 02:02:05;;;;;;;16.65;2.28;;;2.20;99.90;;;;;;4868415;29;20065;-88
2022/01/21 02:04:32;;;;;;;19.42;2.33;;;2.30;99.90;;;;;;4858771;29;20056;-88
2022/01/21 02:06:57;;;;;;;14.00;2.25;;;2.20;99.90;;;;;;4843241;29;20041;-87
2022/01/21 02:09:24;;;;;;;9.30;2.10;;;2.30;99.90;;;;;;4856658;29;20045;-88
2022/01/21 02:11:49;;;;;;;17.83;2.38;;;2.30;99.90;;;;;;4858851;29;20104;-88
2022/01/21 02:14:22;;;;;;;9.00;2.05;;;2.30;99.90;;;;;;4853893;29;20140;-88
2022/01/21 02:22:11;;;;;;;9.48;1.90;;;2.30;99.90;;;;;;4870655;29;20056;-88
2022/01/21 02:27:12;;;;;;;11.80;2.25;;;2.20;99.90;;;;;;4870683;29;20117;-88
2022/01/21 02:29:46;;;;;;;11.25;2.00;;;2.10;99.90;;;;;;4855002;29;20061;-88
2022/01/21 02:32:12;;;;;;;20.52;2.53;;;2.10;99.90;;;;;;4860031;29;20048;-88
2022/01/21 02:34:38;;;;;;;10.88;2.20;;;2.00;99.90;;;;;;4858185;29;20047;-88
2022/01/21 02:37:05;;;;;;;12.45;1.90;;;2.00;99.90;;;;;;4873509;29;20124;-88
2022/01/21 02:39:30;;;;;;;10.88;1.77;;;1.90;99.90;;;;;;4870777;29;20045;-88
2022/01/21 02:41:56;;;;;;;14.88;2.05;;;2.00;99.90;;;;;;4849556;29;20045;-88
2022/01/21 02:44:22;;;;;;;14.38;2.28;;;2.00;99.90;;;;;;4871722;29;20481;-88
2022/01/21 02:46:55;;;;;;;18.67;2.30;;;2.00;99.90;;;;;;4862069;29;20049;-88
2022/01/21 02:49:20;;;;;;;14.77;2.37;;;2.00;99.90;;;;;;4859286;29;20064;-89
2022/01/21 02:51:46;;;;;;;12.55;2.15;;;2.10;99.90;;;;;;4877547;29;20443;-90
2022/01/21 02:54:12;;;;;;;11.93;1.70;;;2.10;99.90;;;;;;4854880;29;20073;-88
2022/01/21 02:56:39;;;;;;;10.00;2.00;;;2.20;99.90;;;;;;4845560;29;20511;-89
2022/01/21 02:59:08;;;;;;;13.80;2.60;;;2.20;99.90;;;;;;4858709;29;20644;-89
2022/01/21 03:01:35;;;;;;;9.63;1.63;;;2.20;99.90;;;;;;4868147;29;20041;-89
2022/01/21 03:04:03;;;;;;;6.53;1.75;;;2.10;99.90;;;;;;4853095;29;20117;-88
2022/01/21 03:06:29;;;;;;;9.48;1.83;;;2.10;99.90;;;;;;4859318;29;20037;-89
2022/01/21 03:08:59;;;;;;;9.85;1.70;;;2.00;99.90;;;;;;4858463;29;20038;-88
2022/01/21 03:11:27;;;;;;;9.13;1.50;;;1.90;99.90;;;;;;4858599;29;20080;-88
2022/01/21 03:13:53;;;;;;;13.02;1.73;;;1.80;99.90;;;;;;4858554;29;20041;-88
2022/01/21 03:16:20;;;;;;;15.85;2.05;;;1.80;99.90;;;;;;4873784;29;20049;-88
2022/01/21 03:18:46;;;;;;;17.90;2.33;;;1.80;99.90;;;;;;4876538;29;20141;-88
2022/01/21 03:21:16;;;;;;;11.82;2.53;;;1.80;99.90;;;;;;4877026;29;20045;-88
2022/01/21 03:23:46;;;;;;;15.52;1.75;;;1.80;99.90;;;;;;4875642;29;20090;-89
2022/01/21 03:26:16;;;;;;;12.95;1.77;;;1.80;99.90;;;;;;4858212;29;20045;-90
2022/01/21 03:28:43;;;;;;;12.93;2.03;;;1.90;99.90;;;;;;4843877;29;20389;-89
2022/01/21 03:31:08;;;;;;;9.75;2.20;;;2.00;99.90;;;;;;4858292;29;20425;-88
2022/01/21 03:33:34;;;;;;;5.88;1.85;;;1.90;99.90;;;;;;4876657;29;20120;-89
2022/01/21 03:36:00;;;;;;;7.90;1.80;;;1.90;99.90;;;;;;4861204;29;20607;-88
2022/01/21 03:38:27;;;;;;;11.75;1.90;;;1.90;99.90;;;;;;4876780;29;20079;-88
2022/01/21 03:40:54;;;;;;;7.82;1.48;;;1.90;99.90;;;;;;4876259;29;20045;-88
2022/01/21 03:43:21;;;;;;;11.45;1.80;;;1.90;99.90;;;;;;4850624;29;20140;-88
2022/01/21 03:45:47;;;;;;;14.68;1.92;;;1.80;99.90;;;;;;4876148;29;20048;-88
2022/01/21 03:48:13;;;;;;;8.18;1.65;;;1.70;99.90;;;;;;4854861;29;20045;-89
2022/01/21 03:50:39;;;;;;;13.90;2.20;;;1.70;99.90;;;;;;4858621;29;20052;-88
2022/01/21 03:53:05;;;;;;;7.30;1.80;;;1.60;99.90;;;;;;4861136;29;20112;-89
2022/01/21 03:55:31;;;;;;;13.25;2.05;;;1.60;99.90;;;;;;4848432;29;20046;-89
2022/01/21 03:57:58;;;;;;;12.23;2.63;;;1.60;99.90;;;;;;4860892;29;20081;-88
2022/01/21 04:00:28;;;;;;;12.65;2.05;;;1.50;99.90;;;;;;4861163;29;20545;-88
2022/01/21 04:02:54;;;;;;;12.10;2.13;;;1.50;99.90;;;;;;4850082;29;20595;-88
2022/01/21 04:05:20;;;;;;;10.95;2.42;;;1.50;99.90;;;;;;4877129;29;20124;-89
2022/01/21 04:07:46;;;;;;;16.58;2.20;;;1.50;99.90;;;;;;4876423;29;20095;-88
2022/01/21 04:10:11;;;;;;;14.98;2.35;;;1.40;99.90;;;;;;4876012;29;20072;-88
2022/01/21 04:12:37;;;;;;;7.85;2.00;;;1.40;99.90;;;;;;4876830;29;20045;-87
2022/01/21 04:15:04;;;;;;;15.25;2.97;;;1.40;99.90;;;;;;4876281;29;20052;-88
2022/01/21 04:17:30;;;;;;;18.45;2.83;;;1.40;99.90;;;;;;4860835;29;20403;-88
2022/01/21 04:19:55;;;;;;;20.98;3.08;;;1.40;99.90;;;;;;4876158;29;20041;-88
2022/01/21 04:22:21;;;;;;;14.43;2.92;;;1.40;99.90;;;;;;4873338;29;20608;-88
2022/01/21 04:24:49;;;;;;;13.07;2.35;;;1.30;99.90;;;;;;4838713;29;20046;-89
2022/01/21 04:27:16;;;;;;;13.05;2.30;;;1.30;99.90;;;;;;4861187;29;20048;-87
2022/01/21 04:29:41;;;;;;;13.88;2.17;;;1.30;99.90;;;;;;4863059;29;20060;-89
2022/01/21 04:32:08;;;;;;;15.30;2.35;;;1.30;99.90;;;;;;4864004;29;20096;-88
2022/01/21 04:34:34;;;;;;;15.60;2.45;;;1.30;99.90;;;;;;4863678;29;20041;-88
2022/01/21 04:37:01;;;;;;;17.27;2.22;;;1.30;99.90;;;;;;4878863;29;20040;-88
2022/01/21 04:39:32;;;;;;;15.05;2.45;;;1.30;99.90;;;;;;4863624;29;20048;-88
2022/01/21 04:47:27;;;;;;;17.33;2.60;;;1.20;99.90;;;;;;4864714;29;19923;-88
2022/01/21 04:49:53;;;;;;;11.20;2.30;;;1.20;99.90;;;;;;4878502;29;20559;-87
2022/01/21 04:52:19;;;;;;;19.48;3.00;;;1.20;99.90;;;;;;4878818;29;20491;-88
2022/01/21 04:54:45;;;;;;;14.48;2.30;;;1.20;99.90;;;;;;4875760;29;20045;-88
2022/01/21 04:57:11;;;;;;;13.75;2.83;;;1.20;99.90;;;;;;4845235;29;20056;-88
2022/01/21 04:59:38;;;;;;;15.10;2.42;;;1.10;99.90;;;;;;4845471;29;20060;-89
2022/01/21 05:02:05;;;;;;;18.77;2.70;;;1.10;99.90;;;;;;4875631;29;20045;-89
2022/01/21 05:04:30;;;;;;;20.48;2.80;;;1.20;99.90;;;;;;4845011;29;20053;-88
2022/01/21 05:06:56;;;;;;;13.20;2.20;;;1.20;99.90;;;;;;4850668;29;20049;-89
2022/01/21 05:09:33;;;;;;;25.67;3.13;;;1.20;99.90;;;;;;4865971;29;20675;-88
2022/01/21 05:12:08;;;;;;;13.38;2.13;;;1.30;99.90;;;;;;4873042;29;20048;-86
2022/01/21 05:17:08;;;;;;;20.83;2.95;;;1.40;99.90;;;;;;4878535;29;20056;-88
2022/01/21 05:19:33;;;;;;;13.95;2.80;;;1.40;99.90;;;;;;4852659;29;20051;-88
2022/01/21 05:21:59;;;;;;;14.25;3.17;;;1.50;99.90;;;;;;4845011;29;20045;-88
2022/01/21 05:24:24;;;;;;;13.68;2.42;;;1.50;99.90;;;;;;4871022;29;20045;-88
2022/01/21 05:26:57;;;;;;;16.83;2.53;;;1.50;99.90;;;;;;4853305;29;20181;-88
2022/01/21 05:29:25;;;;;;;16.25;2.65;;;1.50;99.90;;;;;;4877533;29;20040;-88
2022/01/21 05:31:51;;;;;;;10.93;2.20;;;1.50;99.90;;;;;;4862223;29;20482;-88
2022/01/21 05:34:17;;;;;;;13.63;2.50;;;1.40;99.90;;;;;;4878221;29;20048;-88
2022/01/21 05:36:43;;;;;;;16.67;2.50;;;1.40;99.90;;;;;;4877736;29;20047;-88
2022/01/21 05:39:10;;;;;;;19.50;2.30;;;1.40;99.90;;;;;;4862457;29;20092;-88
2022/01/21 05:41:36;;;;;;;16.30;2.72;;;1.40;99.90;;;;;;4874591;29;20401;-88
2022/01/21 05:44:07;;;;;;;8.23;2.55;;;1.30;99.90;;;;;;4846959;29;20085;-89
2022/01/21 05:49:02;;;;;;;15.20;2.45;;;1.40;99.90;;;;;;4877652;29;20503;-88
2022/01/21 05:51:28;;;;;;;9.18;2.08;;;1.40;99.90;;;;;;4862038;29;20443;-88
2022/01/21 05:53:53;;;;;;;11.05;2.25;;;1.40;99.90;;;;;;4859872;29;20041;-88
2022/01/21 05:56:24;;;;;;;12.05;2.10;;;1.40;99.90;;;;;;4874903;29;20037;-89
2022/01/21 05:58:49;;;;;;;14.77;2.05;;;1.40;99.90;;;;;;4858008;29;20055;-89
2022/01/21 06:01:15;;;;;;;13.32;1.98;;;1.50;99.90;;;;;;4877863;29;20044;-89
2022/01/21 06:03:40;;;;;;;16.00;2.38;;;1.60;99.90;;;;;;4858479;29;20056;-88
2022/01/21 06:06:06;;;;;;;15.57;2.65;;;1.60;99.90;;;;;;4861027;29;20080;-89
2022/01/21 06:08:32;;;;;;;13.13;2.33;;;1.60;99.90;;;;;;4859075;29;20084;-89
2022/01/21 06:10:57;;;;;;;13.82;2.60;;;1.60;99.90;;;;;;4857456;29;20229;-90
2022/01/21 06:13:23;;;;;;;21.13;2.63;;;1.60;99.90;;;;;;4853658;29;20136;-92
2022/01/21 06:15:48;;;;;;;22.70;2.67;;;1.60;99.90;;;;;;4859392;29;20487;-90
2022/01/21 06:18:14;;;;;;;10.38;3.10;;;1.60;99.90;;;;;;4868711;29;20040;-89
2022/01/21 06:20:41;;;;;;;15.85;3.20;;;1.60;99.90;;;;;;4858789;29;20077;-90
2022/01/21 06:23:06;;;;;;;17.35;2.72;;;1.60;99.90;;;;;;4843440;29;20052;-89
2022/01/21 06:25:32;;;;;;;16.65;2.38;;;1.60;99.90;;;;;;4859523;29;20497;-89
2022/01/21 06:27:57;;;;;;;13.80;2.30;;;1.60;99.90;;;;;;4858715;29;20040;-89
2022/01/21 06:30:23;;;;;;;16.48;2.83;;;1.70;99.90;;;;;;4875831;29;20067;-89
2022/01/21 06:32:48;;;;;;;10.43;2.00;;;1.70;99.90;;;;;;4862139;29;20047;-90
2022/01/21 06:35:14;;;;;;;12.55;2.10;;;1.70;99.90;;;;;;4861750;29;20074;-89
2022/01/21 06:37:40;;;;;;;21.25;2.33;;;1.80;99.90;;;;;;4877702;29;20059;-90
2022/01/21 06:40:07;;;;;;;11.70;2.40;;;1.80;99.90;;;;;;4862403;29;20123;-89
2022/01/21 06:42:34;;;;;;;13.07;2.10;;;1.80;99.90;;;;;;4857544;29;20064;-89
2022/01/21 06:45:01;;;;;;;13.20;2.15;;;1.80;99.90;;;;;;4859306;29;20041;-88
2022/01/21 06:47:27;;;;;;;13.88;2.28;;;1.90;99.90;;;;;;4849607;29;20045;-88
2022/01/21 06:49:54;;;;;;;19.30;2.38;;;1.90;99.90;;;;;;4872651;29;20086;-88
2022/01/21 06:52:21;;;;;;;14.40;2.60;;;1.90;99.90;;;;;;4859178;29;20041;-90
2022/01/21 06:54:47;;;;;;;11.45;2.17;;;1.80;99.90;;;;;;4858762;29;20144;-90
2022/01/21 06:57:14;;;;;;;9.75;2.15;;;1.90;99.90;;;;;;4858078;29;20052;-90
2022/01/21 06:59:39;;;;;;;13.32;2.20;;;1.90;99.90;;;;;;4869725;29;20049;-90
2022/01/21 07:02:06;;;;;;;16.80;2.30;;;1.90;99.90;;;;;;4851431;29;20444;-90
2022/01/21 07:04:33;;;;;;;19.52;2.05;;;1.90;99.90;;;;;;4861912;29;20059;-89
2022/01/21 07:06:59;;;;;;;19.10;2.60;;;1.90;99.90;;;;;;4875857;29;20415;-89
2022/01/21 07:09:26;;;;;;;15.63;2.50;;;1.80;99.90;;;;;;4861820;29;20435;-89
2022/01/21 07:11:52;;;;;;;7.68;1.90;;;1.80;99.90;;;;;;4861530;29;20540;-90
2022/01/21 07:14:18;;;;;;;14.65;2.50;;;1.80;99.90;;;;;;4860335;29;20052;-92
2022/01/21 07:16:44;;;;;;;16.67;2.70;;;1.80;99.90;;;;;;4860501;29;20048;-90
2022/01/21 07:19:09;;;;;;;17.33;2.70;;;1.80;99.90;;;;;;4856972;29;20052;-90
2022/01/21 07:21:35;;;;;;;8.02;1.65;;;1.80;99.90;;;;;;4858983;29;20084;-90
2022/01/21 07:24:01;;;;;;;14.70;2.85;;;1.80;99.90;;;;;;4876443;29;20075;-89
2022/01/21 07:26:26;;;;;;;16.95;2.50;;;1.70;99.90;;;;;;4860030;29;20044;-91
2022/01/21 07:28:52;;;;;;;12.07;2.03;;;1.70;99.90;;;;;;4853223;29;20045;-88
2022/01/21 07:31:17;;;;;;;15.55;2.30;;;1.70;99.90;;;;;;4858167;29;20094;-90
2022/01/21 07:33:43;;;;;;;19.00;2.72;;;1.70;99.90;;;;;;4876034;29;20440;-91
2022/01/21 07:36:08;;;;;;;9.68;2.28;;;1.70;99.90;;;;;;4862937;29;20080;-87
2022/01/21 07:38:34;;;;;;;11.00;2.13;;;1.80;99.90;;;;;;4852705;29;20083;-89
2022/01/21 07:41:00;;;;;;;14.38;2.25;;;1.80;99.90;;;;;;4868839;29;20439;-90
2022/01/21 07:43:25;;;;;;;14.52;2.45;;;1.70;99.90;;;;;;4863659;29;20076;-93
2022/01/21 07:45:51;;;;;;;12.20;1.90;;;1.70;99.90;;;;;;4879841;29;20045;-89
2022/01/21 07:48:17;;;;;;;14.40;2.00;;;1.70;99.90;;;;;;4863992;29;20045;-90
2022/01/21 07:50:42;;;;;;;12.15;2.60;;;1.80;99.90;;;;;;4877122;29;20084;-89
2022/01/21 07:53:08;;;;;;;12.75;2.30;;;1.70;99.90;;;;;;4860219;29;20074;-88
2022/01/21 07:55:33;;;;;;;14.95;2.60;;;1.80;99.90;;;;;;4860439;29;20787;-87
2022/01/21 07:58:00;;;;;;;17.73;2.70;;;1.80;99.90;;;;;;4861555;29;20104;-90
2022/01/21 08:00:26;;;;;;;15.98;2.28;;;1.80;99.90;;;;;;4862499;29;20047;-89
2022/01/21 08:02:51;;;;;;;13.27;2.30;;;1.90;99.90;;;;;;4855235;29;20124;-89
2022/01/21 08:05:17;;;;;;;18.25;3.40;;;1.90;99.90;;;;;;4854704;29;20104;-88
2022/01/21 08:07:43;;;;;;;18.80;2.78;;;1.80;99.90;;;;;;4873857;29;20052;-88
2022/01/21 08:10:09;;;;;;;18.40;2.80;;;1.80;99.90;;;;;;4875381;29;20045;-88
2022/01/21 08:12:35;;;;;;;11.60;1.90;;;1.80;99.90;;;;;;4852344;29;20041;-88
2022/01/21 08:15:00;;;;;;;11.02;2.42;;;1.80;99.90;;;;;;4874356;29;20510;-89
2022/01/21 08:17:29;;;;;;;11.52;2.45;;;1.70;99.90;;;;;;4883551;29;20040;-90
2022/01/21 08:19:56;;;;;;;15.13;2.85;;;1.70;99.90;;;;;;4872404;29;20045;-87
2022/01/21 08:22:22;;;;;;;12.48;1.95;;;1.70;99.90;;;;;;4863699;29;20048;-87
2022/01/21 08:24:48;;;;;;;14.70;2.80;;;1.70;99.90;;;;;;4870073;29;20399;-86
2022/01/21 08:27:14;;;;;;;13.45;2.97;;;1.70;99.90;;;;;;4869961;29;20044;-88
2022/01/21 08:29:40;;;;;;;13.52;2.22;;;1.70;99.90;;;;;;4861372;29;20504;-87
2022/01/21 08:32:07;;;;;;;17.88;3.15;;;1.60;99.90;;;;;;4877859;29;20055;-87
2022/01/21 08:34:36;;;;;;;14.32;3.08;;;1.60;99.90;;;;;;4859113;29;20045;-88
2022/01/21 08:37:03;;;;;;;14.68;3.85;;;1.60;99.90;;;;;;4875002;29;20055;-89
2022/01/21 08:39:28;;;;;;;18.60;3.35;;;1.60;99.90;;;;;;4874517;29;20201;-88
2022/01/21 08:41:54;;;;;;;15.40;3.80;;;1.70;99.90;;;;;;4854387;29;20044;-88
2022/01/21 08:44:20;;;;;;;13.57;3.22;;;1.70;99.90;;;;;;4861686;29;20456;-88
2022/01/21 08:46:46;;;;;;;13.30;3.00;;;1.70;99.90;;;;;;4874954;29;20833;-89
2022/01/21 08:49:11;;;;;;;19.58;4.00;;;1.80;99.90;;;;;;4872887;29;20041;-88
2022/01/21 08:51:50;;;;;;;19.10;3.67;;;1.80;99.90;;;;;;4874056;29;20097;-89
2022/01/21 08:54:16;;;;;;;13.23;3.03;;;1.90;99.90;;;;;;4859134;29;20069;-87
2022/01/21 08:56:43;;;;;;;14.05;3.13;;;2.00;99.90;;;;;;4866368;29;20465;-88
2022/01/21 08:59:09;;;;;;;15.05;3.15;;;2.10;99.90;;;;;;4876873;29;20048;-88
2022/01/21 09:01:34;;;;;;;19.27;3.42;;;2.20;99.90;;;;;;4877336;29;20044;-89
2022/01/21 09:04:00;;;;;;;15.57;3.25;;;2.30;99.90;;;;;;4876450;29;20454;-87
2022/01/21 09:06:28;;;;;;;13.45;2.85;;;2.40;99.90;;;;;;4876564;29;20127;-87
2022/01/21 09:08:58;;;;;;;16.58;3.85;;;2.40;99.90;;;;;;4876659;29;20052;-86
2022/01/21 09:11:23;;;;;;;15.48;3.40;;;2.50;99.90;;;;;;4876409;29;20526;-89
2022/01/21 09:13:50;;;;;;;14.52;3.83;;;2.50;99.90;;;;;;4850482;29;20041;-88
2022/01/21 09:16:16;;;;;;;22.77;3.83;;;2.60;99.90;;;;;;4856275;29;20096;-86
2022/01/21 09:18:54;;;;;;;22.17;3.80;;;2.60;99.90;;;;;;4874337;29;20040;-87
2022/01/21 09:21:23;;;;;;;25.65;3.90;;;2.70;99.90;;;;;;4872489;29;20152;-87
2022/01/21 09:23:49;;;;;;;17.45;3.58;;;2.70;99.90;;;;;;4856557;29;20053;-88
2022/01/21 09:26:20;;;;;;;28.23;4.00;;;2.70;99.90;;;;;;4847912;29;20146;-89
2022/01/21 09:28:47;;;;;;;24.02;3.58;;;2.80;99.90;;;;;;4854833;29;20049;-86
2022/01/21 09:31:13;;;;;;;24.90;4.88;;;2.90;99.90;;;;;;4872669;29;20091;-89
2022/01/21 09:33:40;;;;;;;21.48;3.72;;;2.90;99.90;;;;;;4870640;29;20049;-90
2022/01/21 09:36:07;;;;;;;22.67;4.15;;;3.00;99.90;;;;;;4876538;29;20495;-86
2022/01/21 09:38:33;;;;;;;19.60;3.92;;;3.00;99.90;;;;;;4859434;29;20515;-89
2022/01/21 09:40:59;;;;;;;18.90;3.90;;;3.00;99.90;;;;;;4860087;29;20053;-88
2022/01/21 09:43:24;;;;;;;22.17;3.67;;;3.10;99.90;;;;;;4859980;29;20037;-88
2022/01/21 09:45:53;;;;;;;22.02;3.75;;;3.10;99.90;;;;;;4858021;29;20132;-88
2022/01/21 09:48:26;;;;;;;16.52;3.65;;;3.20;99.90;;;;;;4850826;29;20037;-88
2022/01/21 09:50:55;;;;;;;13.90;3.15;;;3.20;99.90;;;;;;4869184;29;20500;-88
2022/01/21 09:53:31;;;;;;;14.32;2.90;;;3.30;99.90;;;;;;4876852;29;20037;-89
2022/01/21 09:55:58;;;;;;;17.80;2.97;;;3.40;99.90;;;;;;4854925;29;20387;-87
2022/01/21 09:58:26;;;;;;;17.48;3.13;;;3.50;99.90;;;;;;4864358;29;20119;-89
2022/01/21 10:00:52;;;;;;;17.63;2.90;;;3.60;99.90;;;;;;4857977;29;20048;-92
2022/01/21 10:03:18;;;;;;;19.70;3.65;;;3.70;99.90;;;;;;4860408;29;20139;-90
2022/01/21 10:05:46;;;;;;;16.13;3.42;;;3.70;99.90;;;;;;4891313;29;20042;-88
2022/01/21 10:08:13;;;;;;;11.93;3.67;;;3.70;99.90;;;;;;4859488;29;20185;-87
2022/01/21 10:10:43;;;;;;;13.10;2.88;;;3.70;99.90;;;;;;4850893;29;20135;-89
2022/01/21 10:13:10;;;;;;;13.57;2.65;;;3.80;99.90;;;;;;4859731;29;20129;-90
2022/01/21 10:15:39;;;;;;;17.85;2.95;;;3.90;99.90;;;;;;4860796;29;20241;-88
2022/01/21 10:18:06;;;;;;;20.52;2.83;;;4.00;99.90;;;;;;4859519;29;20080;-89
2022/01/21 10:20:32;;;;;;;15.77;2.83;;;4.10;99.90;;;;;;4843671;29;20048;-90
2022/01/21 10:23:04;;;;;;;16.40;2.90;;;4.10;99.90;;;;;;4875790;29;20052;-88
2022/01/21 10:25:31;;;;;;;16.27;3.35;;;4.20;99.90;;;;;;4856597;29;20127;-91
2022/01/21 10:28:17;;;;;;;11.65;2.85;;;4.30;99.90;;;;;;4875195;29;20048;-91
2022/01/21 10:30:45;;;;;;;12.85;2.97;;;4.30;99.90;;;;;;4859015;29;20068;-89
2022/01/21 10:33:29;;;;;;;15.60;3.38;;;4.40;99.90;;;;;;4860947;29;20044;-89
2022/01/21 10:36:26;;;;;;;22.95;3.53;;;4.50;99.90;;;;;;4876956;29;20052;-92
2022/01/21 10:39:19;;;;;;;18.98;3.03;;;4.50;99.90;;;;;;4877154;29;20143;-89
2022/01/21 10:41:49;;;;;;;15.05;2.92;;;4.50;99.90;;;;;;4859198;29;20515;-90
2022/01/21 10:44:17;;;;;;;16.92;3.10;;;4.50;99.90;;;;;;4857698;29;20072;-90
2022/01/21 10:46:59;;;;;;;17.33;3.90;;;4.50;99.90;;;;;;4859047;29;20036;-88
2022/01/21 10:49:25;;;;;;;20.90;3.38;;;4.60;99.90;;;;;;4861711;29;20451;-88
2022/01/21 10:51:51;;;;;;;21.58;3.08;;;4.80;99.90;;;;;;4875148;29;20124;-86
2022/01/21 10:54:26;;;;;;;25.00;4.38;;;4.90;99.90;;;;;;4875343;29;20040;-88
2022/01/21 10:57:12;;;;;;;20.17;3.72;;;5.10;99.90;;;;;;4872599;29;20219;-90
2022/01/21 10:59:45;;;;;;;25.30;4.70;;;5.20;99.90;;;;;;4869576;29;20144;-89
2022/01/21 11:02:11;;;;;;;29.15;3.85;;;5.20;99.90;;;;;;4880847;29;20040;-89
2022/01/21 11:04:44;;;;;;;20.15;3.90;;;5.10;99.90;;;;;;4850522;29;20056;-92
2022/01/21 11:07:14;;;;;;;27.85;4.10;;;5.10;99.90;;;;;;4855058;29;20122;-90
2022/01/21 11:09:39;;;;;;;24.70;3.83;;;5.00;99.90;;;;;;4854458;29;20528;-88
2022/01/21 11:12:14;;;;;;;27.33;4.38;;;5.00;99.90;;;;;;4862220;29;20037;-88
2022/01/21 11:14:59;;;;;;;16.60;4.57;;;5.00;99.90;;;;;;4872029;29;20056;-89
2022/01/21 11:17:25;;;;;;;26.30;3.88;;;5.10;99.90;;;;;;4852611;29;20552;-89
2022/01/21 11:20:15;;;;;;;19.20;3.92;;;5.20;99.90;;;;;;4870549;29;20056;-89
2022/01/21 11:22:56;;;;;;;22.60;4.75;;;5.20;99.90;;;;;;4878580;29;20103;-89
2022/01/21 11:25:45;;;;;;;19.15;3.90;;;5.20;99.90;;;;;;4861014;29;20132;-90
2022/01/21 11:28:11;;;;;;;22.10;4.03;;;5.30;99.90;;;;;;4880263;29;20139;-88
2022/01/21 11:30:37;;;;;;;26.00;3.63;;;5.30;99.90;;;;;;4861665;29;20537;-88
2022/01/21 11:33:03;;;;;;;26.95;4.88;;;5.30;99.90;;;;;;4868927;29;20044;-87
2022/01/21 11:35:30;;;;;;;26.45;4.72;;;5.30;99.90;;;;;;4862215;29;20036;-89
2022/01/21 11:37:57;;;;;;;22.63;4.10;;;5.20;99.90;;;;;;4850699;29;20056;-87
2022/01/21 11:40:23;;;;;;;26.02;4.40;;;5.30;99.90;;;;;;4862100;29;20051;-88
2022/01/21 11:42:50;;;;;;;24.95;4.00;;;5.30;99.90;;;;;;4859727;29;20085;-88
2022/01/21 11:46:16;;;;;;;29.40;4.38;;;5.40;99.90;;;;;;4874483;29;20052;-88
2022/01/21 11:50:42;;;;;;;23.77;3.88;;;5.70;99.90;;;;;;4864431;29;20060;-89
2022/01/21 11:53:08;;;;;;;25.98;4.35;;;5.80;99.90;;;;;;4863761;29;20044;-90
2022/01/21 11:55:36;;;;;;;19.90;3.22;;;5.90;99.90;;;;;;4850874;29;20040;-90
2022/01/21 11:58:16;;;;;;;26.02;3.45;;;6.00;99.90;;;;;;4859595;29;20037;-92
2022/01/21 12:00:43;;;;;;;19.95;3.42;;;6.10;99.90;;;;;;4863264;29;20056;-90
2022/01/21 12:03:09;;;;;;;21.65;3.75;;;6.20;99.90;;;;;;4870921;29;20048;-89
2022/01/21 12:05:35;;;;;;;13.35;3.35;;;6.40;99.90;;;;;;4863363;29;20469;-87
2022/01/21 12:08:05;;;;;;;15.48;3.10;;;6.50;99.90;;;;;;4860506;29;20048;-91
2022/01/21 12:10:31;;;;;;;12.75;2.75;;;6.60;99.90;;;;;;4854275;29;20526;-89
2022/01/21 12:13:09;;;;;;;18.77;2.40;;;6.60;99.90;;;;;;4849978;29;20053;-87
2022/01/21 12:15:45;;;;;;;12.10;2.22;;;6.60;99.90;;;;;;4878071;29;20144;-89
2022/01/21 12:18:23;;;;;;;12.45;3.13;;;6.60;99.90;;;;;;4866009;29;20136;-87
2022/01/21 12:20:50;;;;;;;14.88;2.80;;;6.60;99.90;;;;;;4859873;29;20045;-87
2022/01/21 12:23:16;;;;;;;19.58;2.63;;;6.60;99.90;;;;;;4865186;29;20512;-87
2022/01/21 12:26:17;;;;;;;15.73;2.78;;;6.60;99.90;;;;;;4854720;29;20136;-88
2022/01/21 12:28:52;;;;;;;14.23;3.00;;;6.60;99.90;;;;;;4875865;29;20413;-89
2022/01/21 12:31:19;;;;;;;17.20;2.95;;;6.60;99.90;;;;;;4858809;29;20068;-86
2022/01/21 12:34:06;;;;;;;11.82;2.90;;;6.70;99.90;;;;;;4858601;29;20040;-89
2022/01/21 12:36:36;;;;;;;19.65;2.83;;;6.70;99.90;;;;;;4876437;29;20135;-90
2022/01/21 12:39:24;;;;;;;11.68;2.60;;;6.70;99.90;;;;;;4875136;29;20144;-89
2022/01/21 12:41:50;;;;;;;15.93;2.33;;;6.70;99.90;;;;;;4871208;29;20041;-88
2022/01/21 12:44:30;;;;;;;13.18;2.80;;;6.80;99.90;;;;;;4862355;29;20436;-90
2022/01/21 12:46:56;;;;;;;14.10;2.15;;;6.80;99.90;;;;;;4876606;29;20037;-91
2022/01/21 12:49:33;;;;;;;9.68;2.40;;;6.80;99.90;;;;;;4858434;29;20053;-90
2022/01/21 12:57:33;;;;;;;14.05;2.67;;;6.90;99.90;;;;;;4888694;29;20060;-88
2022/01/21 13:00:09;;;;;;;13.55;2.80;;;6.90;99.90;;;;;;4876530;29;20056;-87
2022/01/21 13:02:35;;;;;;;10.95;2.45;;;6.90;99.90;;;;;;4861133;29;20048;-88
2022/01/21 13:05:26;;;;;;;18.48;2.88;;;6.90;99.90;;;;;;4871152;29;20048;-89
2022/01/21 13:08:01;;;;;;;15.23;3.13;;;6.90;99.90;;;;;;4878184;29;20033;-89
2022/01/21 13:10:29;;;;;;;18.73;2.75;;;6.90;99.90;;;;;;4861508;29;20128;-88
2022/01/21 13:15:40;;;;;;;12.18;2.58;;;6.80;99.90;;;;;;4876705;29;20083;-87
2022/01/21 13:18:28;;;;;;;16.58;2.95;;;6.80;99.90;;;;;;4856230;29;20044;-87
2022/01/21 13:20:56;;;;;;;17.98;3.00;;;6.70;99.90;;;;;;4874934;29;20059;-92
2022/01/21 13:23:30;;;;;;;18.95;2.85;;;6.70;99.90;;;;;;4861903;29;20408;-87
2022/01/21 13:26:17;;;;;;;22.35;3.25;;;6.60;99.90;;;;;;4876147;29;20116;-86
2022/01/21 13:28:59;;;;;;;18.42;3.10;;;6.80;99.90;;;;;;4859353;29;20048;-88
2022/01/21 13:31:27;;;;;;;17.67;2.47;;;6.70;99.90;;;;;;4876692;29;20059;-89
2022/01/21 13:34:08;;;;;;;16.30;2.97;;;6.70;99.90;;;;;;4860498;29;20049;-85
2022/01/21 13:36:45;;;;;;;13.70;3.58;;;6.70;99.90;;;;;;4873146;29;20523;-91
2022/01/21 13:39:15;;;;;;;19.92;3.25;;;6.80;99.90;;;;;;4856648;29;20040;-87
2022/01/21 13:41:50;;;;;;;18.10;3.50;;;6.60;99.90;;;;;;4872564;29;20056;-86
2022/01/21 13:44:36;;;;;;;17.88;3.20;;;6.60;99.90;;;;;;4860944;29;20036;-87
2022/01/21 13:47:06;;;;;;;18.38;2.72;;;6.60;99.90;;;;;;4860020;29;20049;-87
2022/01/21 13:49:32;;;;;;;22.33;3.45;;;6.70;99.90;;;;;;4872351;29;20037;-86
2022/01/21 13:52:01;;;;;;;21.20;2.92;;;6.70;99.90;;;;;;4857657;29;20135;-87
2022/01/21 13:54:42;;;;;;;18.33;3.45;;;6.60;99.90;;;;;;4856799;29;20033;-87
2022/01/21 13:57:08;;;;;;;18.80;3.42;;;6.70;99.90;;;;;;4874680;29;20187;-86